sensor_id;sensor_type;location;lat;lon;timestamp;pressure;altitude;pressure_sealevel;temperature;humidity
43503;BME280;29098;48.184;16.298;2024-02-21T00:01:47;100294.38;;;7.47;88.95
43503;BME280;29098;48.184;16.298;2024-02-21T00:04:12;100276.97;;;7.36;89.36
43503;BME280;29098;48.184;16.298;2024-02-21T00:06:38;100290.63;;;7.50;89.27
43503;BME280;29098;48.184;16.298;2024-02-21T00:09:03;100261.78;;;7.50;88.56
43503;BME280;29098;48.184;16.298;2024-02-21T00:11:29;100263.84;;;7.46;88.90
43503;BME280;29098;48.184;16.298;2024-02-21T00:13:55;100262.19;;;7.45;87.19
43503;BME280;29098;48.184;16.298;2024-02-21T00:16:20;100292.56;;;7.48;88.54
43503;BME280;29098;48.184;16.298;2024-02-21T00:18:46;100256.25;;;7.43;88.40
43503;BME280;29098;48.184;16.298;2024-02-21T00:21:11;100301.13;;;7.60;88.81
43503;BME280;29098;48.184;16.298;2024-02-21T00:23:43;100294.38;;;7.47;88.20
43503;BME280;29098;48.184;16.298;2024-02-21T00:26:08;100253.91;;;7.30;88.78
43503;BME280;29098;48.184;16.298;2024-02-21T00:28:34;100261.25;;;7.36;88.15
43503;BME280;29098;48.184;16.298;2024-02-21T00:30:59;100270.91;;;7.46;87.71
43503;BME280;29098;48.184;16.298;2024-02-21T00:33:24;100245.91;;;7.42;87.37
43503;BME280;29098;48.184;16.298;2024-02-21T00:35:50;100237.63;;;7.36;87.45
43503;BME280;29098;48.184;16.298;2024-02-21T00:38:15;100285.94;;;7.53;86.70
43503;BME280;29098;48.184;16.298;2024-02-21T00:40:41;100294.06;;;7.70;85.61
43503;BME280;29098;48.184;16.298;2024-02-21T00:43:07;100236.78;;;7.36;85.81
43503;BME280;29098;48.184;16.298;2024-02-21T00:45:32;100272.97;;;7.52;85.85
43503;BME280;29098;48.184;16.298;2024-02-21T00:47:58;100221.34;;;7.33;85.68
43503;BME280;29098;48.184;16.298;2024-02-21T00:50:23;100257.38;;;7.60;85.21
43503;BME280;29098;48.184;16.298;2024-02-21T00:52:49;100244.78;;;7.54;84.56
43503;BME280;29098;48.184;16.298;2024-02-21T00:55:14;100235.41;;;7.42;85.18
43503;BME280;29098;48.184;16.298;2024-02-21T00:57:40;100284.28;;;7.62;84.62
43503;BME280;29098;48.184;16.298;2024-02-21T01:00:06;100236.78;;;7.36;85.12
43503;BME280;29098;48.184;16.298;2024-02-21T01:02:33;100284.53;;;7.69;84.54
43503;BME280;29098;48.184;16.298;2024-02-21T01:04:58;100219.91;;;7.58;83.68
43503;BME280;29098;48.184;16.298;2024-02-21T01:07:24;100234.59;;;7.41;83.63
43503;BME280;29098;48.184;16.298;2024-02-21T01:09:50;100224.91;;;7.42;84.17
43503;BME280;29098;48.184;16.298;2024-02-21T01:12:16;100262.75;;;7.68;84.23
43503;BME280;29098;48.184;16.298;2024-02-21T01:14:42;100216.34;;;7.39;84.38
43503;BME280;29098;48.184;16.298;2024-02-21T01:17:07;100205.59;;;7.33;84.60
43503;BME280;29098;48.184;16.298;2024-02-21T01:19:33;100261.91;;;7.58;85.07
43503;BME280;29098;48.184;16.298;2024-02-21T01:21:58;100224.78;;;7.53;84.64
43503;BME280;29098;48.184;16.298;2024-02-21T01:24:24;100231.81;;;7.43;85.25
43503;BME280;29098;48.184;16.298;2024-02-21T01:26:49;100231.97;;;7.41;85.18
43503;BME280;29098;48.184;16.298;2024-02-21T01:29:14;100255.84;;;7.58;85.32
43503;BME280;29098;48.184;16.298;2024-02-21T01:31:40;100197.03;;;7.40;85.21
43503;BME280;29098;48.184;16.298;2024-02-21T01:34:05;100248.53;;;7.61;86.17
43503;BME280;29098;48.184;16.298;2024-02-21T01:36:31;100235.94;;;7.55;85.88
43503;BME280;29098;48.184;16.298;2024-02-21T01:38:56;100195.13;;;7.23;85.30
43503;BME280;29098;48.184;16.298;2024-02-21T01:41:22;100201.34;;;7.32;85.53
43503;BME280;29098;48.184;16.298;2024-02-21T01:43:47;100197.06;;;7.21;84.54
43503;BME280;29098;48.184;16.298;2024-02-21T01:46:13;100184.63;;;7.23;84.92
43503;BME280;29098;48.184;16.298;2024-02-21T01:48:38;100177.19;;;7.28;84.47
43503;BME280;29098;48.184;16.298;2024-02-21T01:51:04;100210.81;;;7.43;84.76
43503;BME280;29098;48.184;16.298;2024-02-21T01:53:36;100201.16;;;7.33;84.58
43503;BME280;29098;48.184;16.298;2024-02-21T01:56:03;100220.75;;;7.49;85.03
43503;BME280;29098;48.184;16.298;2024-02-21T01:58:30;100185.84;;;7.19;84.73
43503;BME280;29098;48.184;16.298;2024-02-21T02:00:57;100229.06;;;7.54;84.23
43503;BME280;29098;48.184;16.298;2024-02-21T02:03:23;100194.28;;;7.32;84.70
43503;BME280;29098;48.184;16.298;2024-02-21T02:05:50;100174.56;;;7.28;85.07
43503;BME280;29098;48.184;16.298;2024-02-21T02:08:17;100164.19;;;7.17;85.18
43503;BME280;29098;48.184;16.298;2024-02-21T02:10:43;100206.41;;;7.43;85.59
43503;BME280;29098;48.184;16.298;2024-02-21T02:13:09;100204.91;;;7.40;85.68
43503;BME280;29098;48.184;16.298;2024-02-21T02:15:46;100179.09;;;7.26;86.01
43503;BME280;29098;48.184;16.298;2024-02-21T02:18:13;100180.19;;;7.33;85.74
43503;BME280;29098;48.184;16.298;2024-02-21T02:20:39;100188.47;;;7.38;85.12
43503;BME280;29098;48.184;16.298;2024-02-21T02:25:50;100180.03;;;7.45;84.99
43503;BME280;29098;48.184;16.298;2024-02-21T02:28:17;100161.28;;;7.39;85.07
43503;BME280;29098;48.184;16.298;2024-02-21T02:30:43;100193.69;;;7.58;84.98
43503;BME280;29098;48.184;16.298;2024-02-21T02:33:08;100161.69;;;7.35;84.31
43503;BME280;29098;48.184;16.298;2024-02-21T02:35:34;100154.38;;;7.38;84.82
43503;BME280;29098;48.184;16.298;2024-02-21T02:38:02;100153.97;;;7.33;84.23
43503;BME280;29098;48.184;16.298;2024-02-21T02:40:27;100145.97;;;7.25;84.70
43503;BME280;29098;48.184;16.298;2024-02-21T02:42:53;100175.78;;;7.44;84.78
43503;BME280;29098;48.184;16.298;2024-02-21T02:45:21;100128.44;;;7.16;84.13
43503;BME280;29098;48.184;16.298;2024-02-21T02:47:48;100143.22;;;7.26;84.30
43503;BME280;29098;48.184;16.298;2024-02-21T02:50:14;100151.88;;;7.27;83.83
43503;BME280;29098;48.184;16.298;2024-02-21T02:52:39;100192.88;;;7.38;83.38
43503;BME280;29098;48.184;16.298;2024-02-21T02:55:05;100144.59;;;7.21;83.15
43503;BME280;29098;48.184;16.298;2024-02-21T02:57:31;100161.69;;;7.35;83.34
43503;BME280;29098;48.184;16.298;2024-02-21T02:59:57;100146.53;;;7.19;83.48
43503;BME280;29098;48.184;16.298;2024-02-21T03:02:22;100159.19;;;7.53;83.49
43503;BME280;29098;48.184;16.298;2024-02-21T03:04:48;100169.94;;;7.50;83.07
43503;BME280;29098;48.184;16.298;2024-02-21T03:07:14;100142.91;;;7.20;82.70
43503;BME280;29098;48.184;16.298;2024-02-21T03:09:40;100126.94;;;7.23;83.25
43503;BME280;29098;48.184;16.298;2024-02-21T03:12:08;100161.53;;;7.46;82.34
43503;BME280;29098;48.184;16.298;2024-02-21T03:14:33;100157.25;;;7.35;82.83
43503;BME280;29098;48.184;16.298;2024-02-21T03:16:59;100135.75;;;7.22;82.86
43503;BME280;29098;48.184;16.298;2024-02-21T03:19:25;100131.63;;;7.19;82.33
43503;BME280;29098;48.184;16.298;2024-02-21T03:21:50;100163.75;;;7.41;82.69
43503;BME280;29098;48.184;16.298;2024-02-21T03:24:16;100150.34;;;7.34;82.74
43503;BME280;29098;48.184;16.298;2024-02-21T03:26:42;100125.66;;;7.27;83.23
43503;BME280;29098;48.184;16.298;2024-02-21T03:29:07;100172.03;;;7.46;82.94
43503;BME280;29098;48.184;16.298;2024-02-21T03:31:34;100179.75;;;7.38;83.17
43503;BME280;29098;48.184;16.298;2024-02-21T03:34:00;100140.84;;;7.23;83.88
43503;BME280;29098;48.184;16.298;2024-02-21T03:36:26;100153.41;;;7.20;83.69
43503;BME280;29098;48.184;16.298;2024-02-21T03:38:51;100182.94;;;7.42;84.20
43503;BME280;29098;48.184;16.298;2024-02-21T03:41:17;100163.09;;;7.29;84.07
43503;BME280;29098;48.184;16.298;2024-02-21T03:43:42;100154.13;;;7.22;84.25
43503;BME280;29098;48.184;16.298;2024-02-21T03:46:08;100174.38;;;7.39;84.06
43503;BME280;29098;48.184;16.298;2024-02-21T03:48:33;100149.00;;;7.20;84.64
43503;BME280;29098;48.184;16.298;2024-02-21T03:50:59;100185.97;;;7.47;84.44
43503;BME280;29098;48.184;16.298;2024-02-21T03:53:24;100158.28;;;7.15;84.91
43503;BME280;29098;48.184;16.298;2024-02-21T03:55:50;100150.94;;;7.08;85.36
43503;BME280;29098;48.184;16.298;2024-02-21T03:58:15;100169.97;;;7.30;85.52
43503;BME280;29098;48.184;16.298;2024-02-21T04:00:40;100182.25;;;7.20;85.86
43503;BME280;29098;48.184;16.298;2024-02-21T04:03:06;100127.22;;;7.00;86.88
43503;BME280;29098;48.184;16.298;2024-02-21T04:05:32;100154.25;;;7.20;86.00
43503;BME280;29098;48.184;16.298;2024-02-21T04:07:58;100155.91;;;7.11;85.97
43503;BME280;29098;48.184;16.298;2024-02-21T04:10:23;100150.41;;;7.24;86.21
43503;BME280;29098;48.184;16.298;2024-02-21T04:12:49;100154.69;;;7.06;86.77
43503;BME280;29098;48.184;16.298;2024-02-21T04:15:16;100174.00;;;7.05;86.38
43503;BME280;29098;48.184;16.298;2024-02-21T04:17:41;100152.34;;;7.03;86.75
43503;BME280;29098;48.184;16.298;2024-02-21T04:20:14;100172.19;;;7.15;86.80
43503;BME280;29098;48.184;16.298;2024-02-21T04:22:40;100125.84;;;6.76;87.03
43503;BME280;29098;48.184;16.298;2024-02-21T04:25:06;100141.72;;;6.84;87.06
43503;BME280;29098;48.184;16.298;2024-02-21T04:27:32;100159.50;;;6.91;87.43
43503;BME280;29098;48.184;16.298;2024-02-21T04:29:57;100186.28;;;7.24;87.28
43503;BME280;29098;48.184;16.298;2024-02-21T04:32:23;100147.09;;;7.03;86.55
43503;BME280;29098;48.184;16.298;2024-02-21T04:34:48;100158.81;;;7.08;86.48
43503;BME280;29098;48.184;16.298;2024-02-21T04:37:13;100120.06;;;6.82;86.48
43503;BME280;29098;48.184;16.298;2024-02-21T04:39:39;100138.38;;;7.02;86.74
43503;BME280;29098;48.184;16.298;2024-02-21T04:42:05;100148.19;;;7.00;86.62
43503;BME280;29098;48.184;16.298;2024-02-21T04:44:30;100159.66;;;7.09;85.63
43503;BME280;29098;48.184;16.298;2024-02-21T04:46:55;100177.00;;;7.20;85.94
43503;BME280;29098;48.184;16.298;2024-02-21T04:49:21;100140.59;;;7.26;85.40
43503;BME280;29098;48.184;16.298;2024-02-21T04:51:46;100128.44;;;7.16;84.81
43503;BME280;29098;48.184;16.298;2024-02-21T04:54:12;100140.16;;;7.11;85.89
43503;BME280;29098;48.184;16.298;2024-02-21T04:56:37;100173.03;;;7.25;85.69
43503;BME280;29098;48.184;16.298;2024-02-21T04:59:02;100117.28;;;7.13;85.02
43503;BME280;29098;48.184;16.298;2024-02-21T05:01:28;100134.34;;;7.37;83.71
43503;BME280;29098;48.184;16.298;2024-02-21T05:03:53;100133.28;;;7.10;84.40
43503;BME280;29098;48.184;16.298;2024-02-21T05:06:19;100156.47;;;7.25;83.68
43503;BME280;29098;48.184;16.298;2024-02-21T05:08:44;100113.13;;;7.21;83.48
43503;BME280;29098;48.184;16.298;2024-02-21T05:11:10;100134.81;;;7.03;83.82
43503;BME280;29098;48.184;16.298;2024-02-21T05:13:35;100137.84;;;7.08;83.21
43503;BME280;29098;48.184;16.298;2024-02-21T05:16:01;100128.72;;;7.22;83.82
43503;BME280;29098;48.184;16.298;2024-02-21T05:18:27;100099.47;;;7.07;82.46
43503;BME280;29098;48.184;16.298;2024-02-21T05:20:53;100120.88;;;7.12;82.30
43503;BME280;29098;48.184;16.298;2024-02-21T05:23:19;100137.13;;;7.16;83.30
43503;BME280;29098;48.184;16.298;2024-02-21T05:25:44;100100.16;;;7.19;83.14
43503;BME280;29098;48.184;16.298;2024-02-21T05:28:09;100099.31;;;7.19;83.58
43503;BME280;29098;48.184;16.298;2024-02-21T05:30:35;100099.34;;;7.09;83.52
43503;BME280;29098;48.184;16.298;2024-02-21T05:33:07;100121.94;;;7.20;83.94
43503;BME280;29098;48.184;16.298;2024-02-21T05:35:32;100112.66;;;7.35;81.38
43503;BME280;29098;48.184;16.298;2024-02-21T05:37:58;100137.66;;;7.30;82.39
43503;BME280;29098;48.184;16.298;2024-02-21T05:40:25;100110.66;;;7.19;82.80
43503;BME280;29098;48.184;16.298;2024-02-21T05:42:51;100134.91;;;7.31;83.10
43503;BME280;29098;48.184;16.298;2024-02-21T05:45:17;100118.94;;;7.24;81.92
43503;BME280;29098;48.184;16.298;2024-02-21T05:47:43;100101.25;;;7.17;81.50
43503;BME280;29098;48.184;16.298;2024-02-21T05:50:10;100113.13;;;7.21;81.86
43503;BME280;29098;48.184;16.298;2024-02-21T05:52:35;100122.75;;;7.40;82.00
43503;BME280;29098;48.184;16.298;2024-02-21T05:55:01;100109.09;;;7.36;81.16
43503;BME280;29098;48.184;16.298;2024-02-21T05:57:26;100144.97;;;7.46;81.24
43503;BME280;29098;48.184;16.298;2024-02-21T06:00:06;100124.97;;;7.45;80.97
43503;BME280;29098;48.184;16.298;2024-02-21T06:02:32;100131.75;;;7.37;79.97
43503;BME280;29098;48.184;16.298;2024-02-21T06:04:57;100080.41;;;7.25;80.92
43503;BME280;29098;48.184;16.298;2024-02-21T06:07:23;100097.94;;;7.24;80.28
43503;BME280;29098;48.184;16.298;2024-02-21T06:09:48;100095.56;;;7.31;79.80
43503;BME280;29098;48.184;16.298;2024-02-21T06:12:13;100124.66;;;7.48;79.24
43503;BME280;29098;48.184;16.298;2024-02-21T06:14:39;100112.09;;;7.42;78.97
43503;BME280;29098;48.184;16.298;2024-02-21T06:17:04;100074.47;;;7.23;78.74
43503;BME280;29098;48.184;16.298;2024-02-21T06:19:30;100110.47;;;7.40;78.51
43503;BME280;29098;48.184;16.298;2024-02-21T06:21:55;100103.44;;;7.31;78.91
43503;BME280;29098;48.184;16.298;2024-02-21T06:24:21;100118.31;;;7.40;79.02
43503;BME280;29098;48.184;16.298;2024-02-21T06:26:47;100104.53;;;7.38;78.76
43503;BME280;29098;48.184;16.298;2024-02-21T06:29:12;100089.34;;;7.32;78.05
43503;BME280;29098;48.184;16.298;2024-02-21T06:31:40;100056.28;;;7.11;78.67
43503;BME280;29098;48.184;16.298;2024-02-21T06:34:06;100121.09;;;7.39;78.06
43503;BME280;29098;48.184;16.298;2024-02-21T06:36:31;100097.31;;;7.50;77.84
43503;BME280;29098;48.184;16.298;2024-02-21T06:38:57;100119.16;;;7.51;78.55
43503;BME280;29098;48.184;16.298;2024-02-21T06:41:22;100086.31;;;7.37;78.64
43503;BME280;29098;48.184;16.298;2024-02-21T06:43:48;100072.97;;;7.20;78.54
43503;BME280;29098;48.184;16.298;2024-02-21T06:46:26;100069.09;;;7.24;78.37
43503;BME280;29098;48.184;16.298;2024-02-21T06:48:53;100116.66;;;7.49;78.09
43503;BME280;29098;48.184;16.298;2024-02-21T06:51:19;100091.97;;;7.32;78.61
43503;BME280;29098;48.184;16.298;2024-02-21T06:53:45;100063.88;;;7.15;78.63
43503;BME280;29098;48.184;16.298;2024-02-21T06:56:10;100110.47;;;7.40;78.98
43503;BME280;29098;48.184;16.298;2024-02-21T06:58:36;100050.47;;;7.18;78.69
43503;BME280;29098;48.184;16.298;2024-02-21T07:01:01;100102.59;;;7.40;78.66
43503;BME280;29098;48.184;16.298;2024-02-21T07:03:27;100084.53;;;7.28;78.81
43503;BME280;29098;48.184;16.298;2024-02-21T07:05:53;100039.06;;;7.09;78.03
43503;BME280;29098;48.184;16.298;2024-02-21T07:08:18;100108.91;;;7.48;78.46
43503;BME280;29098;48.184;16.298;2024-02-21T07:10:43;100083.78;;;7.45;78.41
43503;BME280;29098;48.184;16.298;2024-02-21T07:13:09;100081.06;;;7.37;78.70
43503;BME280;29098;48.184;16.298;2024-02-21T07:15:34;100113.34;;;7.47;78.45
43503;BME280;29098;48.184;16.298;2024-02-21T07:18:01;100073.63;;;7.32;81.33
43503;BME280;29098;48.184;16.298;2024-02-21T07:20:27;100107.03;;;7.40;79.16
43503;BME280;29098;48.184;16.298;2024-02-21T07:22:52;100066.97;;;7.38;78.74
43503;BME280;29098;48.184;16.298;2024-02-21T07:25:18;100096.31;;;7.61;78.14
43503;BME280;29098;48.184;16.298;2024-02-21T07:27:44;100076.03;;;7.53;78.26
43503;BME280;29098;48.184;16.298;2024-02-21T07:30:10;100087.38;;;7.54;77.89
43503;BME280;29098;48.184;16.298;2024-02-21T07:32:35;100089.78;;;7.65;77.53
43503;BME280;29098;48.184;16.298;2024-02-21T07:35:01;100049.25;;;7.50;77.65
43503;BME280;29098;48.184;16.298;2024-02-21T07:37:27;100058.94;;;7.49;77.83
43503;BME280;29098;48.184;16.298;2024-02-21T07:39:52;100062.22;;;7.61;78.16
43503;BME280;29098;48.184;16.298;2024-02-21T07:42:17;100028.88;;;7.44;77.24
43503;BME280;29098;48.184;16.298;2024-02-21T07:44:43;100016.53;;;7.54;77.71
43503;BME280;29098;48.184;16.298;2024-02-21T07:47:08;100056.63;;;7.74;76.45
43503;BME280;29098;48.184;16.298;2024-02-21T07:49:41;100076.69;;;7.65;77.03
43503;BME280;29098;48.184;16.298;2024-02-21T07:52:06;100050.41;;;7.47;77.97
43503;BME280;29098;48.184;16.298;2024-02-21T07:54:33;100053.31;;;7.72;77.51
43503;BME280;29098;48.184;16.298;2024-02-21T07:56:58;100039.00;;;7.66;76.64
43503;BME280;29098;48.184;16.298;2024-02-21T07:59:24;100039.47;;;7.80;76.19
43503;BME280;29098;48.184;16.298;2024-02-21T08:01:49;100035.03;;;7.80;75.36
43503;BME280;29098;48.184;16.298;2024-02-21T08:04:15;100052.09;;;7.94;74.99
43503;BME280;29098;48.184;16.298;2024-02-21T08:06:40;100018.41;;;7.90;75.11
43503;BME280;29098;48.184;16.298;2024-02-21T08:09:05;100018.94;;;7.93;74.84
43503;BME280;29098;48.184;16.298;2024-02-21T08:11:31;100043.06;;;8.25;74.53
43503;BME280;29098;48.184;16.298;2024-02-21T08:13:56;100068.81;;;8.21;73.49
43503;BME280;29098;48.184;16.298;2024-02-21T08:16:23;100004.47;;;8.07;73.21
43503;BME280;29098;48.184;16.298;2024-02-21T08:18:48;100071.66;;;8.46;71.72
43503;BME280;29098;48.184;16.298;2024-02-21T08:21:14;100042.56;;;8.40;71.26
43503;BME280;29098;48.184;16.298;2024-02-21T08:23:39;100034.75;;;8.48;71.12
43503;BME280;29098;48.184;16.298;2024-02-21T08:26:05;100024.63;;;8.53;70.85
43503;BME280;29098;48.184;16.298;2024-02-21T08:28:30;100040.09;;;8.74;69.96
43503;BME280;29098;48.184;16.298;2024-02-21T08:30:56;100049.38;;;8.87;70.44
43503;BME280;29098;48.184;16.298;2024-02-21T08:33:21;99994.44;;;8.57;69.31
43503;BME280;29098;48.184;16.298;2024-02-21T08:35:51;100034.25;;;8.89;68.27
43503;BME280;29098;48.184;16.298;2024-02-21T08:38:16;100009.91;;;8.87;67.65
43503;BME280;29098;48.184;16.298;2024-02-21T08:40:42;100058.25;;;9.12;68.08
43503;BME280;29098;48.184;16.298;2024-02-21T08:43:07;100012.09;;;8.91;68.71
43503;BME280;29098;48.184;16.298;2024-02-21T08:45:33;100011.28;;;8.91;67.72
43503;BME280;29098;48.184;16.298;2024-02-21T08:47:58;100021.09;;;8.89;67.84
43503;BME280;29098;48.184;16.298;2024-02-21T08:50:24;99990.66;;;8.78;67.17
43503;BME280;29098;48.184;16.298;2024-02-21T08:52:49;100033.63;;;8.95;67.82
43503;BME280;29098;48.184;16.298;2024-02-21T08:55:15;100033.63;;;8.95;67.59
43503;BME280;29098;48.184;16.298;2024-02-21T08:57:40;100040.31;;;9.08;68.25
43503;BME280;29098;48.184;16.298;2024-02-21T09:00:06;100045.28;;;9.19;67.50
43503;BME280;29098;48.184;16.298;2024-02-21T09:02:40;100016.31;;;9.11;67.96
43503;BME280;29098;48.184;16.298;2024-02-21T09:05:06;99992.91;;;8.99;67.73
43503;BME280;29098;48.184;16.298;2024-02-21T09:07:31;99970.44;;;9.05;68.68
43503;BME280;29098;48.184;16.298;2024-02-21T09:09:57;99987.13;;;9.22;67.24
43503;BME280;29098;48.184;16.298;2024-02-21T09:12:22;99990.34;;;9.42;67.64
43503;BME280;29098;48.184;16.298;2024-02-21T09:14:48;100022.41;;;9.38;67.50
43503;BME280;29098;48.184;16.298;2024-02-21T09:17:16;99968.78;;;9.39;67.97
43503;BME280;29098;48.184;16.298;2024-02-21T09:19:43;100001.78;;;9.68;66.99
43503;BME280;29098;48.184;16.298;2024-02-21T09:22:09;99983.66;;;9.65;66.62
43503;BME280;29098;48.184;16.298;2024-02-21T09:24:34;100000.31;;;9.73;65.94
43503;BME280;29098;48.184;16.298;2024-02-21T09:26:59;99984.16;;;9.60;66.46
43503;BME280;29098;48.184;16.298;2024-02-21T09:29:25;99968.22;;;9.70;65.35
43503;BME280;29098;48.184;16.298;2024-02-21T09:31:51;100016.81;;;9.84;65.75
43503;BME280;29098;48.184;16.298;2024-02-21T09:34:17;99962.44;;;9.66;65.00
43503;BME280;29098;48.184;16.298;2024-02-21T09:36:42;99955.34;;;9.58;65.25
43503;BME280;29098;48.184;16.298;2024-02-21T09:39:09;99963.13;;;9.77;66.17
43503;BME280;29098;48.184;16.298;2024-02-21T09:41:40;99971.59;;;10.05;65.71
43503;BME280;29098;48.184;16.298;2024-02-21T09:44:10;99978.03;;;10.11;64.49
43503;BME280;29098;48.184;16.298;2024-02-21T09:47:03;99995.69;;;10.44;64.35
43503;BME280;29098;48.184;16.298;2024-02-21T09:49:33;99971.91;;;10.19;63.50
43503;BME280;29098;48.184;16.298;2024-02-21T09:52:03;99949.38;;;10.24;63.91
43503;BME280;29098;48.184;16.298;2024-02-21T09:54:29;99938.34;;;10.29;62.88
43503;BME280;29098;48.184;16.298;2024-02-21T09:56:58;99961.44;;;10.52;62.50
43503;BME280;29098;48.184;16.298;2024-02-21T09:59:24;99946.09;;;10.55;60.67
43503;BME280;29098;48.184;16.298;2024-02-21T10:01:50;99976.53;;;10.91;61.09
43503;BME280;29098;48.184;16.298;2024-02-21T10:04:16;99951.88;;;11.16;60.47
43503;BME280;29098;48.184;16.298;2024-02-21T10:06:44;99940.34;;;11.48;60.56
43503;BME280;29098;48.184;16.298;2024-02-21T10:09:26;99941.09;;;11.65;60.03
43503;BME280;29098;48.184;16.298;2024-02-21T10:11:56;99965.13;;;11.47;60.00
43503;BME280;29098;48.184;16.298;2024-02-21T10:14:21;99964.56;;;11.60;59.83
43503;BME280;29098;48.184;16.298;2024-02-21T10:16:48;99968.84;;;11.61;58.80
43503;BME280;29098;48.184;16.298;2024-02-21T10:19:18;99967.97;;;11.37;59.00
43503;BME280;29098;48.184;16.298;2024-02-21T10:21:43;99987.56;;;11.51;59.52
43503;BME280;29098;48.184;16.298;2024-02-21T10:24:11;99986.84;;;11.58;58.80
43503;BME280;29098;48.184;16.298;2024-02-21T10:26:37;99941.78;;;11.59;58.38
43503;BME280;29098;48.184;16.298;2024-02-21T10:29:03;99957.63;;;11.59;58.78
43503;BME280;29098;48.184;16.298;2024-02-21T10:31:29;99950.84;;;11.65;58.45
43503;BME280;29098;48.184;16.298;2024-02-21T10:33:56;99934.66;;;11.68;58.02
43503;BME280;29098;48.184;16.298;2024-02-21T10:36:23;99960.56;;;11.96;57.79
43503;BME280;29098;48.184;16.298;2024-02-21T10:38:49;99946.69;;;11.94;57.35
43503;BME280;29098;48.184;16.298;2024-02-21T10:41:15;99938.56;;;12.04;56.58
43503;BME280;29098;48.184;16.298;2024-02-21T10:43:49;99923.44;;;11.89;56.41
43503;BME280;29098;48.184;16.298;2024-02-21T10:46:18;99922.09;;;11.70;56.99
43503;BME280;29098;48.184;16.298;2024-02-21T10:48:45;99914.69;;;11.65;57.26
43503;BME280;29098;48.184;16.298;2024-02-21T10:51:15;99938.00;;;11.85;57.01
43503;BME280;29098;48.184;16.298;2024-02-21T10:56:38;99918.28;;;11.41;58.07
43503;BME280;29098;48.184;16.298;2024-02-21T10:59:07;99949.91;;;11.49;57.76
43503;BME280;29098;48.184;16.298;2024-02-21T11:01:32;99928.53;;;11.44;58.08
43503;BME280;29098;48.184;16.298;2024-02-21T11:04:02;99933.47;;;11.39;58.44
43503;BME280;29098;48.184;16.298;2024-02-21T11:06:28;99952.31;;;11.36;58.69
43503;BME280;29098;48.184;16.298;2024-02-21T11:09:04;99940.09;;;11.35;58.52
43503;BME280;29098;48.184;16.298;2024-02-21T11:11:33;99899.47;;;11.13;59.23
43503;BME280;29098;48.184;16.298;2024-02-21T11:14:08;99937.56;;;11.10;59.34
43503;BME280;29098;48.184;16.298;2024-02-21T11:16:38;99886.03;;;10.82;59.72
43503;BME280;29098;48.184;16.298;2024-02-21T11:19:09;99890.41;;;11.07;58.76
43503;BME280;29098;48.184;16.298;2024-02-21T11:21:37;99885.53;;;10.87;58.38
43503;BME280;29098;48.184;16.298;2024-02-21T11:24:03;99869.22;;;10.83;59.15
43503;BME280;29098;48.184;16.298;2024-02-21T11:26:30;99894.09;;;10.89;59.02
43503;BME280;29098;48.184;16.298;2024-02-21T11:29:02;99882.25;;;10.85;58.94
43503;BME280;29098;48.184;16.298;2024-02-21T11:31:44;99904.91;;;11.11;59.43
43503;BME280;29098;48.184;16.298;2024-02-21T11:34:17;99891.09;;;11.01;59.29
43503;BME280;29098;48.184;16.298;2024-02-21T11:36:48;99877.00;;;10.77;57.69
43503;BME280;29098;48.184;16.298;2024-02-21T11:39:24;99830.25;;;10.62;57.96
43503;BME280;29098;48.184;16.298;2024-02-21T11:42:19;99877.34;;;11.14;58.39
43503;BME280;29098;48.184;16.298;2024-02-21T11:44:45;99878.22;;;11.06;57.92
43503;BME280;29098;48.184;16.298;2024-02-21T11:47:11;99863.72;;;11.02;58.59
43503;BME280;29098;48.184;16.298;2024-02-21T11:49:38;99876.06;;;11.09;57.84
43503;BME280;29098;48.184;16.298;2024-02-21T11:52:07;99842.25;;;11.05;58.49
43503;BME280;29098;48.184;16.298;2024-02-21T11:54:33;99830.84;;;11.13;58.11
43503;BME280;29098;48.184;16.298;2024-02-21T11:57:00;99841.53;;;11.19;57.40
43503;BME280;29098;48.184;16.298;2024-02-21T11:59:26;99825.09;;;11.09;57.36
43503;BME280;29098;48.184;16.298;2024-02-21T12:01:52;99812.53;;;11.11;57.28
43503;BME280;29098;48.184;16.298;2024-02-21T12:04:19;99862.22;;;11.39;56.22
43503;BME280;29098;48.184;16.298;2024-02-21T12:06:45;99828.91;;;11.06;56.49
43503;BME280;29098;48.184;16.298;2024-02-21T12:09:17;99847.06;;;11.33;57.90
43503;BME280;29098;48.184;16.298;2024-02-21T12:11:43;99815.03;;;11.13;57.09
43503;BME280;29098;48.184;16.298;2024-02-21T12:14:09;99816.19;;;11.10;57.15
43503;BME280;29098;48.184;16.298;2024-02-21T12:16:35;99832.50;;;11.14;55.32
43503;BME280;29098;48.184;16.298;2024-02-21T12:19:03;99827.09;;;11.07;55.80
43503;BME280;29098;48.184;16.298;2024-02-21T12:21:33;99847.69;;;11.35;55.48
43503;BME280;29098;48.184;16.298;2024-02-21T12:24:26;99813.00;;;10.91;55.96
43503;BME280;29098;48.184;16.298;2024-02-21T12:26:52;99802.28;;;10.85;56.12
43503;BME280;29098;48.184;16.298;2024-02-21T12:29:19;99793.63;;;10.76;56.73
43503;BME280;29098;48.184;16.298;2024-02-21T12:31:45;99786.19;;;10.79;56.74
43503;BME280;29098;48.184;16.298;2024-02-21T12:34:10;99802.44;;;10.91;55.38
43503;BME280;29098;48.184;16.298;2024-02-21T12:36:41;99805.25;;;10.90;56.31
43503;BME280;29098;48.184;16.298;2024-02-21T12:39:08;99817.50;;;11.14;56.93
43503;BME280;29098;48.184;16.298;2024-02-21T12:41:34;99796.66;;;10.96;55.99
43503;BME280;29098;48.184;16.298;2024-02-21T12:44:01;99801.03;;;11.04;56.14
43503;BME280;29098;48.184;16.298;2024-02-21T12:46:28;99782.53;;;11.12;56.08
43503;BME280;29098;48.184;16.298;2024-02-21T12:48:54;99782.13;;;11.23;55.96
43503;BME280;29098;48.184;16.298;2024-02-21T12:51:19;99775.84;;;11.24;56.07
43503;BME280;29098;48.184;16.298;2024-02-21T12:53:47;99768.00;;;11.16;54.27